Time;durP1;ratioP1;P1;durP2;ratioP2;P2;SDS_P1;SDS_P2;PMS_P1;PMS_P2;Temp;Humidity;BMP_temperature;BMP_pressure;BME280_temperature;BME280_humidity;BME280_pressure;Samples;Min_cycle;Max_cycle;Signal;HPM_P1;HPM_P2
2022/01/10 00:01:07;;;;;;;6.85;3.17;;;20.00;61.10;;;;;;4952353;28;87203;-81
2022/01/10 00:03:33;;;;;;;4.68;3.10;;;20.00;61.00;;;;;;4951612;28;87462;-83
2022/01/10 00:05:59;;;;;;;6.18;3.22;;;20.00;61.20;;;;;;4951758;28;87953;-80
2022/01/10 00:08:25;;;;;;;8.35;3.38;;;20.00;61.00;;;;;;4933512;28;91164;-81
2022/01/10 00:10:52;;;;;;;4.85;3.00;;;20.00;61.00;;;;;;4951654;28;88437;-84
2022/01/10 00:13:17;;;;;;;6.72;3.40;;;20.00;60.90;;;;;;4951731;28;87993;-83
2022/01/10 00:15:44;;;;;;;5.93;3.33;;;20.00;61.00;;;;;;4951467;28;88001;-84
2022/01/10 00:18:13;;;;;;;5.05;2.88;;;20.00;61.10;;;;;;4951217;28;88073;-82
2022/01/10 00:20:42;;;;;;;6.25;3.08;;;20.00;60.90;;;;;;4949483;28;87788;-80
2022/01/10 00:23:09;;;;;;;3.88;2.70;;;19.90;60.90;;;;;;4950778;28;87243;-83
2022/01/10 00:25:35;;;;;;;6.78;3.13;;;20.00;60.70;;;;;;4933311;28;89918;-81
2022/01/10 00:28:00;;;;;;;5.28;3.15;;;19.90;60.80;;;;;;4951669;28;88118;-82
2022/01/10 00:30:26;;;;;;;6.88;3.30;;;19.90;60.80;;;;;;4951025;28;87473;-82
2022/01/10 00:32:52;;;;;;;4.18;3.00;;;19.90;60.70;;;;;;4951029;28;88803;-82
2022/01/10 00:35:18;;;;;;;5.65;2.95;;;19.90;60.70;;;;;;4949067;28;89692;-81
2022/01/10 00:37:45;;;;;;;5.88;2.97;;;19.90;60.70;;;;;;4949244;28;87584;-81
2022/01/10 00:40:14;;;;;;;5.65;3.10;;;19.90;60.80;;;;;;4950901;28;87691;-81
2022/01/10 00:42:40;;;;;;;5.50;3.13;;;19.90;60.90;;;;;;4951201;28;87020;-85
2022/01/10 00:45:17;;;;;;;4.93;3.22;;;19.90;60.90;;;;;;4951535;28;87601;-84
2022/01/10 00:47:45;;;;;;;5.20;3.03;;;19.90;60.80;;;;;;4950808;28;88093;-82
2022/01/10 00:50:12;;;;;;;5.18;3.20;;;19.90;60.60;;;;;;4950842;28;87494;-85
2022/01/10 00:52:43;;;;;;;7.55;3.33;;;19.90;60.60;;;;;;4951144;28;87501;-86
2022/01/10 00:55:12;;;;;;;5.50;2.78;;;19.80;60.40;;;;;;4932453;28;89012;-86
2022/01/10 00:57:38;;;;;;;4.55;2.72;;;19.80;60.50;;;;;;4950979;28;88636;-85
2022/01/10 01:00:07;;;;;;;4.40;2.80;;;19.80;60.60;;;;;;4934012;28;90724;-85
2022/01/10 01:02:32;;;;;;;4.38;3.22;;;19.80;60.50;;;;;;4951545;28;87426;-83
2022/01/10 01:05:06;;;;;;;5.43;3.15;;;19.80;60.60;;;;;;4951331;28;87346;-84
2022/01/10 01:07:32;;;;;;;7.40;3.17;;;19.80;60.50;;;;;;4948877;28;91012;-86
2022/01/10 01:12:56;;;;;;;6.13;2.90;;;19.80;60.40;;;;;;4932090;28;87974;-84
2022/01/10 01:15:29;;;;;;;4.43;3.15;;;19.80;60.40;;;;;;4950906;28;87199;-86
2022/01/10 01:18:10;;;;;;;4.47;2.80;;;19.80;60.20;;;;;;4950091;28;87560;-85
2022/01/10 01:26:01;;;;;;;5.35;3.13;;;19.80;60.30;;;;;;4950736;28;87968;-87
2022/01/10 01:28:30;;;;;;;5.15;3.03;;;19.80;61.00;;;;;;4951325;28;87634;-83
2022/01/10 01:30:56;;;;;;;4.97;3.00;;;19.80;60.10;;;;;;4952752;28;87550;-87
2022/01/10 01:33:24;;;;;;;4.88;2.90;;;19.70;60.00;;;;;;4939996;28;87001;-88
2022/01/10 01:35:51;;;;;;;4.35;3.17;;;19.70;59.90;;;;;;4957010;28;88038;-86
2022/01/10 01:38:17;;;;;;;4.45;3.30;;;19.70;59.90;;;;;;4956707;28;87824;-86
2022/01/10 01:40:50;;;;;;;4.38;3.20;;;19.70;59.80;;;;;;4957661;28;87655;-87
2022/01/10 01:43:16;;;;;;;4.00;2.80;;;19.70;59.80;;;;;;4957259;28;87873;-87
2022/01/10 01:45:45;;;;;;;4.15;2.78;;;19.70;60.00;;;;;;4956531;28;87003;-86
2022/01/10 01:48:11;;;;;;;3.80;2.65;;;19.70;59.90;;;;;;4955782;28;88591;-88
2022/01/10 01:50:37;;;;;;;4.78;3.03;;;19.70;59.70;;;;;;4955655;28;88180;-85
2022/01/10 01:53:04;;;;;;;4.40;3.10;;;19.70;59.70;;;;;;4956646;28;87318;-88
2022/01/10 01:55:30;;;;;;;3.95;2.80;;;19.70;59.60;;;;;;4955882;28;87782;-85
2022/01/10 01:57:56;;;;;;;3.63;2.60;;;19.60;60.20;;;;;;4956085;28;87048;-88
2022/01/10 02:00:25;;;;;;;4.95;3.08;;;19.70;59.60;;;;;;4938711;28;89188;-88
2022/01/10 02:02:54;;;;;;;4.88;2.90;;;19.60;59.60;;;;;;4957506;28;87697;-87
2022/01/10 02:05:21;;;;;;;4.07;3.00;;;19.60;59.50;;;;;;4957220;28;86828;-88
2022/01/10 02:07:47;;;;;;;3.72;3.00;;;19.60;59.60;;;;;;4957068;28;87895;-86
2022/01/10 02:10:13;;;;;;;4.03;2.90;;;19.60;59.70;;;;;;4957954;28;87425;-88
2022/01/10 02:12:39;;;;;;;4.68;2.75;;;19.60;59.70;;;;;;4957351;28;87899;-85
2022/01/10 02:15:05;;;;;;;3.90;2.63;;;19.60;59.80;;;;;;4956219;28;87810;-84
2022/01/10 02:17:36;;;;;;;4.65;2.85;;;19.60;59.20;;;;;;4956010;28;88840;-85
2022/01/10 02:20:05;;;;;;;3.70;2.67;;;19.60;59.30;;;;;;4953343;28;90485;-85
2022/01/10 02:22:31;;;;;;;4.85;2.88;;;19.60;59.00;;;;;;4957030;28;87830;-85
2022/01/10 02:24:57;;;;;;;4.78;2.88;;;19.60;59.00;;;;;;4956506;28;87416;-86
2022/01/10 02:27:24;;;;;;;4.47;2.90;;;19.50;59.00;;;;;;4955802;28;87947;-87
2022/01/10 02:29:50;;;;;;;4.07;2.92;;;19.50;58.90;;;;;;4956970;28;88716;-88
2022/01/10 02:32:16;;;;;;;4.32;2.80;;;19.50;59.10;;;;;;4939882;28;87987;-86
2022/01/10 02:34:42;;;;;;;4.15;2.80;;;19.50;59.10;;;;;;4956299;28;87356;-86
2022/01/10 02:37:08;;;;;;;3.05;2.50;;;19.50;58.80;;;;;;4954691;28;89068;-88
2022/01/10 02:39:36;;;;;;;4.82;2.90;;;19.50;58.80;;;;;;4955686;28;88401;-83
2022/01/10 02:42:09;;;;;;;4.18;2.70;;;19.50;59.30;;;;;;4956018;28;87761;-85
2022/01/10 02:44:35;;;;;;;4.30;2.80;;;19.50;58.90;;;;;;4953297;28;86964;-88
2022/01/10 02:47:00;;;;;;;5.35;3.20;;;19.50;58.90;;;;;;4952383;28;87953;-87
2022/01/10 02:49:28;;;;;;;4.38;3.30;;;19.50;59.00;;;;;;4952472;28;87762;-86
2022/01/10 02:51:57;;;;;;;4.70;3.00;;;19.50;58.80;;;;;;4952890;28;87265;-87
2022/01/10 02:54:24;;;;;;;4.13;2.80;;;19.50;59.00;;;;;;4950320;28;88346;-88
2022/01/10 02:56:52;;;;;;;3.40;2.58;;;19.50;58.70;;;;;;4953068;28;87713;-88
2022/01/10 02:59:19;;;;;;;4.75;3.13;;;19.50;58.70;;;;;;4953138;28;87373;-86
2022/01/10 03:01:45;;;;;;;4.75;3.13;;;19.50;58.70;;;;;;4951480;28;89042;-84
2022/01/10 03:04:11;;;;;;;4.10;2.83;;;19.50;58.60;;;;;;4952133;28;87775;-87
2022/01/10 03:06:39;;;;;;;3.78;2.88;;;19.50;58.70;;;;;;4952201;28;90838;-87
2022/01/10 03:09:06;;;;;;;3.50;2.75;;;19.50;58.50;;;;;;4953131;28;86964;-86
2022/01/10 03:11:55;;;;;;;3.53;2.55;;;19.50;58.60;;;;;;4953300;28;87638;-88
2022/01/10 03:14:21;;;;;;;4.10;3.08;;;19.50;58.70;;;;;;4952496;28;86905;-87
2022/01/10 03:16:47;;;;;;;5.53;3.42;;;19.50;58.80;;;;;;4951237;28;90384;-85
2022/01/10 03:19:12;;;;;;;3.85;2.90;;;19.40;58.60;;;;;;4953462;28;87431;-86
2022/01/10 03:21:39;;;;;;;4.85;3.10;;;19.50;58.60;;;;;;4953222;28;87238;-85
2022/01/10 03:24:05;;;;;;;4.45;3.05;;;19.40;58.50;;;;;;4953075;28;87028;-84
2022/01/10 03:26:32;;;;;;;4.18;2.92;;;19.40;58.50;;;;;;4952166;28;88882;-86
2022/01/10 03:28:58;;;;;;;4.05;2.90;;;19.40;58.60;;;;;;4951744;28;90159;-84
2022/01/10 03:31:24;;;;;;;3.30;2.75;;;19.40;58.50;;;;;;4952058;28;88135;-83
2022/01/10 03:33:50;;;;;;;4.13;2.65;;;19.40;58.50;;;;;;4952955;28;87284;-84
2022/01/10 03:36:16;;;;;;;4.32;2.92;;;19.40;58.50;;;;;;4933208;28;91365;-85
2022/01/10 03:38:41;;;;;;;4.57;2.60;;;19.40;58.40;;;;;;4951216;28;87872;-85
2022/01/10 03:41:07;;;;;;;4.68;3.20;;;19.40;58.40;;;;;;4952750;28;87139;-84
2022/01/10 03:43:33;;;;;;;4.18;3.05;;;19.40;58.30;;;;;;4953148;28;86729;-83
2022/01/10 03:45:59;;;;;;;4.53;2.92;;;19.40;58.30;;;;;;4952183;28;88126;-85
2022/01/10 03:48:24;;;;;;;4.78;2.83;;;19.30;58.20;;;;;;4950631;28;90014;-84
2022/01/10 03:50:50;;;;;;;3.58;2.97;;;19.40;58.30;;;;;;4934106;28;89108;-83
2022/01/10 03:53:16;;;;;;;3.92;2.88;;;19.40;58.30;;;;;;4951292;28;87859;-84
2022/01/10 03:55:51;;;;;;;4.55;3.13;;;19.30;58.30;;;;;;4949969;28;87577;-84
2022/01/10 03:58:17;;;;;;;4.35;3.25;;;19.30;58.30;;;;;;4951199;28;87494;-84
2022/01/10 04:00:42;;;;;;;4.35;2.90;;;19.30;58.40;;;;;;4952334;28;87675;-83
2022/01/10 04:03:08;;;;;;;3.97;2.78;;;19.30;58.20;;;;;;4951996;28;87619;-86
2022/01/10 04:05:34;;;;;;;3.30;2.60;;;19.30;58.30;;;;;;4934317;28;89255;-86
2022/01/10 04:08:00;;;;;;;3.90;2.88;;;19.30;58.40;;;;;;4952417;28;87440;-85
2022/01/10 04:10:26;;;;;;;3.15;2.58;;;19.30;58.20;;;;;;4952267;28;87170;-85
2022/01/10 04:12:52;;;;;;;3.97;2.75;;;19.30;58.30;;;;;;4952139;28;87408;-83
2022/01/10 04:15:18;;;;;;;4.10;3.15;;;19.30;58.30;;;;;;4951194;28;88670;-84
2022/01/10 04:17:43;;;;;;;4.60;2.95;;;19.30;58.20;;;;;;4952170;28;88652;-83
2022/01/10 04:20:10;;;;;;;4.55;3.10;;;19.30;58.30;;;;;;4951701;28;87746;-84
2022/01/10 04:22:35;;;;;;;4.10;3.05;;;19.30;58.20;;;;;;4951102;28;87410;-85
2022/01/10 04:25:01;;;;;;;3.67;3.05;;;19.30;58.40;;;;;;4951505;28;87924;-81
2022/01/10 04:27:31;;;;;;;3.97;2.80;;;19.20;58.30;;;;;;4951452;28;87374;-86
2022/01/10 04:29:58;;;;;;;4.15;3.30;;;19.20;58.30;;;;;;4952164;28;87267;-83
2022/01/10 04:32:26;;;;;;;4.63;3.40;;;19.30;58.20;;;;;;4951137;28;87319;-85
2022/01/10 04:34:52;;;;;;;4.45;3.20;;;19.20;58.20;;;;;;4951223;28;87635;-84
2022/01/10 04:37:35;;;;;;;4.57;2.90;;;19.20;58.20;;;;;;4948888;28;90432;-84
2022/01/10 04:40:01;;;;;;;3.92;3.13;;;19.20;58.80;;;;;;4950813;28;88463;-84
2022/01/10 04:42:27;;;;;;;4.70;3.38;;;19.20;58.10;;;;;;4950927;28;88822;-86
2022/01/10 04:44:52;;;;;;;4.53;2.90;;;19.20;58.10;;;;;;4950830;28;88016;-84
2022/01/10 04:47:18;;;;;;;4.00;2.97;;;19.20;58.20;;;;;;4951525;28;88079;-84
2022/01/10 04:52:31;;;;;;;4.32;3.20;;;19.20;58.10;;;;;;4938711;28;87942;-85
2022/01/10 04:54:58;;;;;;;3.92;3.17;;;19.20;58.00;;;;;;4949726;28;87889;-83
2022/01/10 04:57:24;;;;;;;3.47;3.00;;;19.10;58.00;;;;;;4951522;28;87605;-82
2022/01/10 04:59:49;;;;;;;3.40;3.10;;;19.20;58.10;;;;;;4951237;28;87565;-82
2022/01/10 05:02:17;;;;;;;4.07;3.35;;;19.20;58.10;;;;;;4950714;28;87614;-86
2022/01/10 05:04:51;;;;;;;3.53;3.17;;;19.10;58.00;;;;;;4949887;28;87958;-84
2022/01/10 05:07:16;;;;;;;4.63;3.35;;;19.10;58.00;;;;;;4950193;28;88208;-85
2022/01/10 05:09:42;;;;;;;4.00;3.03;;;19.20;58.10;;;;;;4951412;28;87033;-85
2022/01/10 05:12:07;;;;;;;4.38;3.65;;;19.20;58.00;;;;;;4951612;28;87394;-84
2022/01/10 05:14:34;;;;;;;4.22;3.28;;;19.10;58.00;;;;;;4932689;28;90223;-85
2022/01/10 05:17:00;;;;;;;3.50;3.08;;;19.10;58.00;;;;;;4951305;28;88369;-84
2022/01/10 05:19:25;;;;;;;3.95;3.40;;;19.10;57.90;;;;;;4951424;28;86889;-84
2022/01/10 05:21:51;;;;;;;3.30;3.00;;;19.10;57.90;;;;;;4950970;28;86897;-83
2022/01/10 05:24:17;;;;;;;4.53;3.65;;;19.10;58.00;;;;;;4950058;28;88390;-85
2022/01/10 05:26:42;;;;;;;4.18;3.33;;;19.10;57.90;;;;;;4949862;28;87891;-83
2022/01/10 05:29:08;;;;;;;5.03;3.42;;;19.10;57.90;;;;;;4950014;28;88380;-84
2022/01/10 05:31:34;;;;;;;4.53;3.10;;;19.10;57.90;;;;;;4951092;28;87716;-85
2022/01/10 05:34:00;;;;;;;4.03;2.90;;;19.10;57.90;;;;;;4950623;28;88051;-85
2022/01/10 05:36:26;;;;;;;4.07;3.25;;;19.10;57.90;;;;;;4949502;28;90598;-84
2022/01/10 05:38:52;;;;;;;3.78;3.05;;;19.10;57.70;;;;;;4950099;28;87950;-85
2022/01/10 05:41:20;;;;;;;4.38;3.35;;;19.10;57.70;;;;;;4950712;28;87907;-84
2022/01/10 05:43:47;;;;;;;3.63;3.17;;;19.00;57.90;;;;;;4950281;28;88180;-83
2022/01/10 05:46:23;;;;;;;4.55;3.70;;;19.10;57.80;;;;;;4950374;28;87205;-85
2022/01/10 05:48:52;;;;;;;3.88;3.00;;;19.00;57.80;;;;;;4951361;28;87309;-86
2022/01/10 05:51:19;;;;;;;3.65;3.00;;;19.00;57.70;;;;;;4950527;28;87012;-82
2022/01/10 05:53:46;;;;;;;4.30;3.20;;;19.00;57.90;;;;;;4949667;28;90309;-83
2022/01/10 05:56:12;;;;;;;4.88;3.70;;;19.00;57.70;;;;;;4950298;28;87679;-84
2022/01/10 05:58:38;;;;;;;3.80;3.38;;;19.00;57.80;;;;;;4951004;28;87362;-85
2022/01/10 06:01:04;;;;;;;3.85;3.20;;;19.00;57.70;;;;;;4950515;28;87746;-84
2022/01/10 06:03:30;;;;;;;5.10;3.58;;;19.00;57.70;;;;;;4931914;28;91104;-85
2022/01/10 06:05:56;;;;;;;3.97;3.42;;;19.00;57.70;;;;;;4949273;28;87887;-86
2022/01/10 06:08:22;;;;;;;3.70;3.15;;;19.00;57.90;;;;;;4950199;28;86917;-85
2022/01/10 06:10:47;;;;;;;3.70;3.17;;;19.00;57.80;;;;;;4950283;28;87336;-82
2022/01/10 06:13:13;;;;;;;3.60;3.03;;;19.00;57.70;;;;;;4948735;28;88160;-84
2022/01/10 06:15:41;;;;;;;3.30;3.00;;;19.00;57.70;;;;;;4947960;28;87645;-81
2022/01/10 06:18:07;;;;;;;3.83;3.03;;;19.00;57.60;;;;;;4950554;28;88727;-84
2022/01/10 06:20:33;;;;;;;3.72;3.20;;;18.90;57.70;;;;;;4952817;28;87893;-83
2022/01/10 06:22:59;;;;;;;4.65;3.30;;;18.90;57.60;;;;;;4953605;28;87621;-83
2022/01/10 06:25:28;;;;;;;3.50;3.20;;;18.90;57.60;;;;;;4953331;28;87698;-85
2022/01/10 06:28:02;;;;;;;3.75;3.30;;;19.00;57.80;;;;;;4935807;28;88136;-82
2022/01/10 06:30:27;;;;;;;4.00;3.10;;;18.90;57.70;;;;;;4952794;28;88282;-83
2022/01/10 06:32:53;;;;;;;3.58;3.22;;;18.90;57.60;;;;;;4952925;28;87548;-84
2022/01/10 06:35:19;;;;;;;3.88;3.35;;;18.90;57.70;;;;;;4953100;28;87766;-85
2022/01/10 06:37:44;;;;;;;3.70;3.20;;;19.00;57.80;;;;;;4953340;28;87302;-83
2022/01/10 06:40:11;;;;;;;3.92;3.53;;;18.90;57.70;;;;;;4952910;28;87028;-83
2022/01/10 06:42:37;;;;;;;3.40;3.05;;;18.90;57.80;;;;;;4952358;28;88157;-84
2022/01/10 06:45:03;;;;;;;4.53;3.40;;;18.90;57.80;;;;;;4953200;28;88111;-83
2022/01/10 06:47:28;;;;;;;3.90;3.60;;;18.90;57.70;;;;;;4953038;28;87220;-86
2022/01/10 06:49:54;;;;;;;3.13;2.83;;;18.90;57.60;;;;;;4953277;28;87491;-84
2022/01/10 06:52:20;;;;;;;4.05;3.20;;;18.90;57.70;;;;;;4951987;28;89005;-85
2022/01/10 06:54:46;;;;;;;3.92;3.53;;;18.90;57.60;;;;;;4951684;28;87986;-85
2022/01/10 06:57:11;;;;;;;5.30;2.83;;;18.90;57.70;;;;;;4953560;28;87478;-86
2022/01/10 06:59:37;;;;;;;8.13;3.53;;;18.90;55.60;;;;;;4953245;28;86845;-83
2022/01/10 07:02:03;;;;;;;4.72;3.33;;;18.90;56.90;;;;;;4952789;28;87514;-86
2022/01/10 07:04:28;;;;;;;3.90;3.03;;;18.90;56.30;;;;;;4952586;28;87442;-83
2022/01/10 07:06:55;;;;;;;4.07;3.28;;;18.90;56.50;;;;;;4951591;28;88657;-85
2022/01/10 07:09:21;;;;;;;3.22;2.92;;;18.80;56.70;;;;;;4951581;28;87167;-86
2022/01/10 07:11:56;;;;;;;3.28;2.95;;;18.80;56.70;;;;;;4951512;28;87638;-83
2022/01/10 07:14:22;;;;;;;3.60;3.00;;;18.80;57.20;;;;;;4951468;28;87464;-84
2022/01/10 07:16:49;;;;;;;4.03;3.58;;;18.80;57.30;;;;;;4952216;28;87783;-87
2022/01/10 07:19:15;;;;;;;3.78;3.08;;;18.80;57.10;;;;;;4952285;28;87012;-86
2022/01/10 07:21:41;;;;;;;4.43;3.58;;;18.80;57.20;;;;;;4952356;28;87634;-83
2022/01/10 07:24:07;;;;;;;4.30;3.70;;;18.80;57.20;;;;;;4952372;28;87318;-85
2022/01/10 07:26:34;;;;;;;3.80;3.40;;;18.70;57.20;;;;;;4952460;28;87289;-85
2022/01/10 07:29:01;;;;;;;3.30;3.00;;;18.70;56.90;;;;;;4950933;28;87006;-86
2022/01/10 07:31:26;;;;;;;5.68;3.22;;;18.80;57.10;;;;;;4950867;28;88771;-87
2022/01/10 07:33:52;;;;;;;5.28;3.15;;;18.80;57.10;;;;;;4952019;28;88638;-87
2022/01/10 07:36:18;;;;;;;3.88;3.50;;;18.80;57.10;;;;;;4951521;28;88325;-85
2022/01/10 07:38:43;;;;;;;5.20;3.97;;;18.80;57.10;;;;;;4951657;28;88326;-84
2022/01/10 07:41:09;;;;;;;5.38;3.60;;;18.80;57.80;;;;;;4951636;28;88959;-84
2022/01/10 07:43:35;;;;;;;5.55;3.67;;;18.90;58.10;;;;;;4954650;28;87626;-85
2022/01/10 07:46:01;;;;;;;5.65;3.45;;;18.90;57.40;;;;;;4952192;28;87405;-86
2022/01/10 07:48:33;;;;;;;5.78;3.80;;;19.00;57.60;;;;;;4951291;28;86299;-85
2022/01/10 07:50:59;;;;;;;5.00;3.33;;;19.10;57.90;;;;;;4950526;28;90592;-86
2022/01/10 07:53:32;;;;;;;5.13;3.35;;;19.20;58.20;;;;;;4950333;28;88306;-85
2022/01/10 07:55:58;;;;;;;10.27;3.42;;;19.30;58.20;;;;;;4950028;28;88828;-84
2022/01/10 07:58:23;;;;;;;7.70;3.28;;;19.30;58.40;;;;;;4951810;28;87257;-83
2022/01/10 08:00:49;;;;;;;6.10;3.40;;;19.40;58.30;;;;;;4951125;28;87925;-81
2022/01/10 08:03:14;;;;;;;7.03;3.35;;;19.40;58.40;;;;;;4952780;28;87626;-82
2022/01/10 08:05:40;;;;;;;6.47;4.05;;;19.50;58.30;;;;;;4953263;28;87881;-83
2022/01/10 08:08:06;;;;;;;6.07;3.20;;;19.40;58.30;;;;;;4951654;28;87883;-86
2022/01/10 08:10:31;;;;;;;6.90;3.40;;;19.50;58.20;;;;;;4950962;28;87869;-83
2022/01/10 08:12:57;;;;;;;7.00;3.30;;;19.50;58.30;;;;;;4952195;28;87257;-84
2022/01/10 08:15:23;;;;;;;4.35;3.10;;;19.50;58.20;;;;;;4951317;28;87721;-83
2022/01/10 08:17:49;;;;;;;4.55;3.30;;;19.60;58.30;;;;;;4945598;28;87556;-80
2022/01/10 08:20:15;;;;;;;6.60;3.25;;;19.50;58.00;;;;;;4949704;28;89132;-81
2022/01/10 08:22:41;;;;;;;4.20;3.63;;;19.50;58.10;;;;;;4932350;28;91254;-81
2022/01/10 08:25:07;;;;;;;5.53;3.65;;;19.50;58.00;;;;;;4949874;28;87643;-80
2022/01/10 08:27:35;;;;;;;4.13;3.17;;;19.50;58.10;;;;;;4948642;28;87627;-81
2022/01/10 08:30:02;;;;;;;4.25;3.22;;;19.50;58.20;;;;;;4920033;28;89358;-83
2022/01/10 08:32:28;;;;;;;5.00;3.20;;;19.50;58.20;;;;;;4935829;28;87881;-81
2022/01/10 08:34:53;;;;;;;4.53;3.33;;;19.40;58.20;;;;;;4949171;28;87786;-82
2022/01/10 08:37:27;;;;;;;6.68;3.17;;;19.50;58.30;;;;;;4949067;28;88186;-81
2022/01/10 08:39:52;;;;;;;6.93;3.17;;;19.50;58.50;;;;;;4950116;28;87673;-80
2022/01/10 08:42:20;;;;;;;4.18;2.92;;;19.50;58.40;;;;;;4949477;28;87865;-82
2022/01/10 08:44:46;;;;;;;4.88;3.00;;;19.50;58.50;;;;;;4946440;28;88698;-83
2022/01/10 08:47:13;;;;;;;53.00;11.55;;;19.50;58.60;;;;;;4950240;28;87503;-84
2022/01/10 08:49:38;;;;;;;61.67;11.73;;;19.70;57.60;;;;;;4948499;28;90650;-83
2022/01/10 08:52:04;;;;;;;52.60;11.88;;;19.60;56.80;;;;;;4945651;28;89613;-82
2022/01/10 08:54:30;;;;;;;23.50;7.10;;;19.60;55.00;;;;;;4947921;28;87592;-82
2022/01/10 08:56:55;;;;;;;26.48;7.43;;;19.60;56.40;;;;;;4949320;28;87941;-81
2022/01/10 08:59:22;;;;;;;35.10;8.20;;;19.70;57.00;;;;;;4949872;28;87456;-82
2022/01/10 09:01:48;;;;;;;28.67;6.95;;;19.70;57.30;;;;;;4949804;28;87292;-81
2022/01/10 09:04:18;;;;;;;31.23;7.25;;;19.70;57.60;;;;;;4949011;28;87732;-82
2022/01/10 09:06:45;;;;;;;25.88;6.97;;;19.70;58.20;;;;;;4948932;28;87215;-81
2022/01/10 09:09:11;;;;;;;21.90;6.28;;;19.80;57.40;;;;;;4948166;28;88900;-83
2022/01/10 09:11:37;;;;;;;27.10;7.22;;;19.70;57.50;;;;;;4949903;28;88776;-82
2022/01/10 09:14:03;;;;;;;29.98;8.02;;;19.80;57.40;;;;;;4949194;28;87391;-82
2022/01/10 09:16:39;;;;;;;;;;;;;;;;;;;;;
2022/01/10 09:19:04;;;;;;;21.38;6.63;;;19.70;57.30;;;;;;4949924;28;89774;-81
2022/01/10 09:21:30;;;;;;;25.83;6.70;;;19.70;57.50;;;;;;4949917;28;89337;-80
2022/01/10 09:23:56;;;;;;;19.83;6.32;;;19.70;57.50;;;;;;4949583;28;87137;-83
2022/01/10 09:26:22;;;;;;;21.17;6.75;;;19.70;57.40;;;;;;4949737;28;86830;-85
2022/01/10 09:28:48;;;;;;;23.75;6.82;;;19.70;57.30;;;;;;4949985;28;88386;-80
2022/01/10 09:31:14;;;;;;;20.88;6.38;;;19.70;57.60;;;;;;4950042;28;87346;-81
2022/01/10 09:33:40;;;;;;;20.50;6.85;;;19.70;57.70;;;;;;4950481;28;88873;-85
2022/01/10 09:36:06;;;;;;;18.08;5.68;;;19.70;57.80;;;;;;4950089;28;88814;-81
2022/01/10 09:38:32;;;;;;;21.23;6.63;;;19.70;58.00;;;;;;4949676;28;87553;-82
2022/01/10 09:40:58;;;;;;;14.95;6.03;;;19.70;57.60;;;;;;4950136;28;87843;-81
2022/01/10 09:43:24;;;;;;;20.17;7.13;;;19.70;57.60;;;;;;4950295;28;87373;-81
2022/01/10 09:45:56;;;;;;;16.13;6.07;;;19.80;57.80;;;;;;4949450;28;87062;-81
2022/01/10 09:48:22;;;;;;;20.05;6.28;;;19.70;57.80;;;;;;4950422;28;88051;-81
2022/01/10 09:50:48;;;;;;;16.27;5.93;;;19.70;57.80;;;;;;4950879;28;87434;-82
2022/01/10 09:53:21;;;;;;;16.10;6.03;;;19.70;57.70;;;;;;4953183;28;87695;-81
2022/01/10 09:55:48;;;;;;;21.95;6.57;;;19.80;57.40;;;;;;4954129;28;88060;-82
2022/01/10 09:58:13;;;;;;;15.73;6.05;;;19.80;57.70;;;;;;4953412;28;89446;-81
2022/01/10 10:00:39;;;;;;;18.23;6.07;;;19.70;57.80;;;;;;4954024;28;88579;-81
2022/01/10 10:03:06;;;;;;;20.02;5.90;;;19.70;57.90;;;;;;4954113;28;87224;-81
2022/01/10 10:05:32;;;;;;;17.27;5.85;;;19.70;57.80;;;;;;4953166;28;87982;-82
2022/01/10 10:07:57;;;;;;;19.92;6.50;;;19.70;57.80;;;;;;4953307;28;87607;-82
2022/01/10 10:10:26;;;;;;;17.33;5.82;;;19.70;57.60;;;;;;4935196;28;89857;-82
2022/01/10 10:12:52;;;;;;;13.70;6.32;;;19.80;57.40;;;;;;4953907;28;87229;-84
2022/01/10 10:15:23;;;;;;;15.20;5.75;;;19.80;57.50;;;;;;4953831;28;86513;-83
2022/01/10 10:17:49;;;;;;;15.15;5.82;;;19.80;57.80;;;;;;4953554;28;87348;-83
2022/01/10 10:20:18;;;;;;;14.73;5.88;;;19.80;57.80;;;;;;4953460;28;88056;-82
2022/01/10 10:22:46;;;;;;;19.10;5.32;;;19.80;57.90;;;;;;4953621;28;88697;-84
2022/01/10 10:25:13;;;;;;;20.08;6.00;;;19.80;57.90;;;;;;4953716;28;87750;-83
2022/01/10 10:27:44;;;;;;;13.13;5.10;;;19.80;57.90;;;;;;4953962;28;88217;-84
2022/01/10 10:30:21;;;;;;;16.45;6.40;;;19.80;57.60;;;;;;4953452;28;87800;-83
2022/01/10 10:32:47;;;;;;;13.43;5.90;;;19.80;57.20;;;;;;4953934;28;87572;-80
2022/01/10 10:35:14;;;;;;;17.50;6.20;;;19.80;57.50;;;;;;4953773;28;87866;-82
2022/01/10 10:37:42;;;;;;;17.23;6.25;;;19.80;57.00;;;;;;4954022;28;87856;-82
2022/01/10 10:40:11;;;;;;;17.30;5.35;;;19.80;57.60;;;;;;4954015;28;89555;-83
2022/01/10 10:42:38;;;;;;;;;;;19.80;57.70;;;;;;4954031;28;87806;-80
2022/01/10 10:45:09;;;;;;;17.52;5.60;;;19.80;57.80;;;;;;4954526;28;87710;-82
2022/01/10 10:47:36;;;;;;;17.67;5.88;;;19.80;57.70;;;;;;4953475;28;90662;-80
2022/01/10 10:50:05;;;;;;;19.30;5.45;;;19.80;57.70;;;;;;4953800;28;88677;-83
2022/01/10 10:52:36;;;;;;;17.75;5.60;;;19.80;57.80;;;;;;4954152;28;87483;-81
2022/01/10 10:55:23;;;;;;;13.10;4.80;;;19.80;57.90;;;;;;4954062;28;87940;-81
2022/01/10 10:57:50;;;;;;;13.73;5.75;;;19.70;57.80;;;;;;4953537;28;88137;-84
2022/01/10 11:00:16;;;;;;;13.68;5.63;;;19.80;57.90;;;;;;4953217;28;87397;-81
2022/01/10 11:02:43;;;;;;;14.52;5.45;;;19.80;57.80;;;;;;4953573;28;87694;-83
2022/01/10 11:05:09;;;;;;;16.27;6.18;;;19.80;57.70;;;;;;4951780;28;86862;-85
2022/01/10 11:07:35;;;;;;;14.77;5.97;;;19.80;55.40;;;;;;4933886;28;89100;-85
2022/01/10 11:10:05;;;;;;;14.80;5.78;;;19.80;56.50;;;;;;4952564;28;87259;-81
2022/01/10 11:12:35;;;;;;;15.82;5.97;;;19.80;56.40;;;;;;4952634;28;88381;-84
2022/01/10 11:15:01;;;;;;;14.13;5.63;;;19.80;57.10;;;;;;4952141;28;88280;-83
2022/01/10 11:17:28;;;;;;;14.48;5.63;;;19.90;57.50;;;;;;4953003;28;87637;-80
2022/01/10 11:20:11;;;;;;;12.23;5.22;;;19.90;57.40;;;;;;4951758;28;88380;-84
2022/01/10 11:22:50;;;;;;;13.43;5.07;;;19.90;57.80;;;;;;4953420;28;87895;-85
2022/01/10 11:25:20;;;;;;;12.13;5.23;;;19.90;57.60;;;;;;4952350;28;87887;-85
2022/01/10 11:27:46;;;;;;;15.85;5.28;;;19.90;57.70;;;;;;4953493;28;88174;-85
2022/01/10 11:30:30;;;;;;;14.27;4.93;;;20.00;58.00;;;;;;4952633;28;87555;-85
2022/01/10 11:33:02;;;;;;;17.00;5.35;;;20.00;57.90;;;;;;4952633;28;87426;-85
2022/01/10 11:35:42;;;;;;;17.23;5.75;;;20.00;57.90;;;;;;4951708;28;87610;-85
2022/01/10 11:38:35;;;;;;;16.08;6.57;;;20.00;57.00;;;;;;4951919;28;90121;-84
2022/01/10 11:41:07;;;;;;;21.20;6.30;;;20.00;55.40;;;;;;4952948;28;88045;-84
2022/01/10 11:43:48;;;;;;;19.50;7.25;;;19.90;55.70;;;;;;4951103;28;87640;-83
2022/01/10 11:46:44;;;;;;;14.90;5.15;;;19.90;56.30;;;;;;4951196;28;87663;-84
2022/01/10 11:49:11;;;;;;;20.13;5.57;;;20.00;56.90;;;;;;4952636;28;88160;-83
2022/01/10 11:51:40;;;;;;;17.05;5.18;;;20.00;57.00;;;;;;4953369;28;88060;-85
2022/01/10 11:54:15;;;;;;;16.23;5.13;;;20.00;57.10;;;;;;4953276;28;87854;-84
2022/01/10 11:56:47;;;;;;;19.52;5.88;;;20.00;57.10;;;;;;4949548;28;89515;-82
2022/01/10 11:59:17;;;;;;;17.73;5.82;;;20.00;57.20;;;;;;4948002;28;87315;-80
2022/01/10 12:02:10;;;;;;;19.60;5.60;;;20.00;56.90;;;;;;4949496;28;89927;-84
2022/01/10 12:05:02;;;;;;;14.27;5.10;;;20.00;56.80;;;;;;4943565;28;88966;-84
2022/01/10 12:07:28;;;;;;;16.77;5.43;;;20.00;56.80;;;;;;4951005;28;86905;-82
2022/01/10 12:09:55;;;;;;;18.55;5.78;;;20.00;57.10;;;;;;4951614;28;87296;-82
2022/01/10 12:12:31;;;;;;;15.50;5.00;;;20.00;57.30;;;;;;4951412;28;87940;-83
2022/01/10 12:14:57;;;;;;;18.45;6.03;;;20.10;57.10;;;;;;4949949;28;87749;-83
2022/01/10 12:17:23;;;;;;;15.07;4.72;;;20.10;56.90;;;;;;4949665;28;87792;-83
2022/01/10 12:19:49;;;;;;;15.55;4.97;;;20.10;57.20;;;;;;4950173;28;88126;-81
2022/01/10 12:22:15;;;;;;;14.95;6.18;;;20.10;54.80;;;;;;4951336;28;88054;-80
2022/01/10 12:24:42;;;;;;;14.82;6.13;;;20.10;54.90;;;;;;4951869;28;88214;-85
2022/01/10 12:27:09;;;;;;;17.40;6.70;;;20.00;55.80;;;;;;4951124;28;87990;-81
2022/01/10 12:29:35;;;;;;;22.70;7.63;;;20.00;57.30;;;;;;4951321;28;89035;-84
2022/01/10 12:32:04;;;;;;;27.38;9.30;;;20.10;57.70;;;;;;4952410;28;88018;-82
2022/01/10 12:34:30;;;;;;;19.57;8.77;;;20.10;59.00;;;;;;4950310;28;87723;-85
2022/01/10 12:36:55;;;;;;;24.05;8.75;;;20.10;59.60;;;;;;4950909;28;87683;-85
2022/01/10 12:39:28;;;;;;;24.10;8.70;;;20.10;60.20;;;;;;4949800;28;88879;-81
2022/01/10 12:41:58;;;;;;;21.48;7.57;;;20.10;60.30;;;;;;4951186;28;87690;-83
2022/01/10 12:44:28;;;;;;;30.25;9.02;;;20.10;60.30;;;;;;4951095;28;87071;-84
2022/01/10 12:47:06;;;;;;;28.00;8.18;;;20.10;60.00;;;;;;4951221;28;87265;-85
2022/01/10 12:49:36;;;;;;;23.73;8.30;;;20.10;60.80;;;;;;4951072;28;87906;-81
2022/01/10 12:52:03;;;;;;;18.30;6.75;;;20.10;60.60;;;;;;4933943;28;90319;-85
2022/01/10 12:54:29;;;;;;;21.60;6.85;;;20.10;60.50;;;;;;4949863;28;88454;-85
2022/01/10 12:56:57;;;;;;;23.55;7.05;;;20.10;60.10;;;;;;4949149;28;87077;-81
2022/01/10 12:59:27;;;;;;;23.13;7.25;;;20.10;59.60;;;;;;4949931;28;88079;-86